sensor_id;sensor_type;location;lat;lon;timestamp;temperature;humidity
67901;DHT22;54700;51.796;10.956;2023-02-28T00:01:20;0.10;81.60
67901;DHT22;54700;51.796;10.956;2023-02-28T00:03:51;0.10;81.90
67901;DHT22;54700;51.796;10.956;2023-02-28T00:06:18;0.10;82.80
67901;DHT22;54700;51.796;10.956;2023-02-28T00:08:46;0.20;82.40
67901;DHT22;54700;51.796;10.956;2023-02-28T00:11:13;0.20;83.20
67901;DHT22;54700;51.796;10.956;2023-02-28T00:13:42;0.20;83.20
67901;DHT22;54700;51.796;10.956;2023-02-28T00:16:13;0.20;83.70
67901;DHT22;54700;51.796;10.956;2023-02-28T00:18:42;0.10;83.80
67901;DHT22;54700;51.796;10.956;2023-02-28T00:21:10;0.20;82.60
67901;DHT22;54700;51.796;10.956;2023-02-28T00:23:37;0.20;81.70
67901;DHT22;54700;51.796;10.956;2023-02-28T00:26:04;0.20;82.00
67901;DHT22;54700;51.796;10.956;2023-02-28T00:28:31;0.20;80.00
67901;DHT22;54700;51.796;10.956;2023-02-28T00:30:59;0.30;78.80
67901;DHT22;54700;51.796;10.956;2023-02-28T00:33:26;0.30;78.10
67901;DHT22;54700;51.796;10.956;2023-02-28T00:36:01;0.30;77.70
67901;DHT22;54700;51.796;10.956;2023-02-28T00:38:31;0.30;78.50
67901;DHT22;54700;51.796;10.956;2023-02-28T00:40:58;0.30;79.10
67901;DHT22;54700;51.796;10.956;2023-02-28T00:43:30;0.30;79.10
67901;DHT22;54700;51.796;10.956;2023-02-28T00:45:57;0.30;79.70
67901;DHT22;54700;51.796;10.956;2023-02-28T00:48:24;0.30;80.60
67901;DHT22;54700;51.796;10.956;2023-02-28T00:50:51;0.30;81.30
67901;DHT22;54700;51.796;10.956;2023-02-28T00:53:18;0.20;82.00
67901;DHT22;54700;51.796;10.956;2023-02-28T00:55:46;0.20;82.50
67901;DHT22;54700;51.796;10.956;2023-02-28T00:58:13;0.20;83.70
67901;DHT22;54700;51.796;10.956;2023-02-28T01:00:39;0.20;83.40
67901;DHT22;54700;51.796;10.956;2023-02-28T01:03:06;0.20;83.50
67901;DHT22;54700;51.796;10.956;2023-02-28T01:05:35;0.20;82.90
67901;DHT22;54700;51.796;10.956;2023-02-28T01:08:02;0.20;84.70
67901;DHT22;54700;51.796;10.956;2023-02-28T01:10:29;0.20;85.90
67901;DHT22;54700;51.796;10.956;2023-02-28T01:12:58;0.20;87.20
67901;DHT22;54700;51.796;10.956;2023-02-28T01:15:27;0.10;87.80
67901;DHT22;54700;51.796;10.956;2023-02-28T01:17:54;0.10;88.50
67901;DHT22;54700;51.796;10.956;2023-02-28T01:20:21;0.10;88.70
67901;DHT22;54700;51.796;10.956;2023-02-28T01:22:54;0.10;88.40
67901;DHT22;54700;51.796;10.956;2023-02-28T01:25:21;0.10;86.20
67901;DHT22;54700;51.796;10.956;2023-02-28T01:27:47;0.10;84.20
67901;DHT22;54700;51.796;10.956;2023-02-28T01:30:16;0.10;85.30
67901;DHT22;54700;51.796;10.956;2023-02-28T01:32:43;0.10;86.90
67901;DHT22;54700;51.796;10.956;2023-02-28T01:35:10;0.10;89.40
67901;DHT22;54700;51.796;10.956;2023-02-28T01:37:38;0.10;89.80
67901;DHT22;54700;51.796;10.956;2023-02-28T01:40:08;0.10;89.80
67901;DHT22;54700;51.796;10.956;2023-02-28T01:42:36;0.20;89.20
67901;DHT22;54700;51.796;10.956;2023-02-28T01:45:07;0.20;87.00
67901;DHT22;54700;51.796;10.956;2023-02-28T01:47:48;0.20;83.00
67901;DHT22;54700;51.796;10.956;2023-02-28T01:50:19;0.30;86.40
67901;DHT22;54700;51.796;10.956;2023-02-28T01:52:49;0.30;85.90
67901;DHT22;54700;51.796;10.956;2023-02-28T01:55:18;0.20;84.70
67901;DHT22;54700;51.796;10.956;2023-02-28T01:57:55;0.20;84.20
67901;DHT22;54700;51.796;10.956;2023-02-28T02:00:26;0.20;83.10
67901;DHT22;54700;51.796;10.956;2023-02-28T02:02:55;0.20;84.30
67901;DHT22;54700;51.796;10.956;2023-02-28T02:05:25;0.20;85.70
67901;DHT22;54700;51.796;10.956;2023-02-28T02:07:56;0.10;86.50
67901;DHT22;54700;51.796;10.956;2023-02-28T02:10:29;0.10;86.10
67901;DHT22;54700;51.796;10.956;2023-02-28T02:13:09;0.10;84.40
67901;DHT22;54700;51.796;10.956;2023-02-28T02:15:49;0.20;84.40
67901;DHT22;54700;51.796;10.956;2023-02-28T02:18:26;0.20;84.30
67901;DHT22;54700;51.796;10.956;2023-02-28T02:27:10;0.20;82.20
67901;DHT22;54700;51.796;10.956;2023-02-28T02:29:50;0.20;82.20
67901;DHT22;54700;51.796;10.956;2023-02-28T02:35:38;0.20;82.40
67901;DHT22;54700;51.796;10.956;2023-02-28T02:38:13;0.10;81.10
67901;DHT22;54700;51.796;10.956;2023-02-28T02:40:51;0.10;80.60
67901;DHT22;54700;51.796;10.956;2023-02-28T02:43:25;0.10;82.00
67901;DHT22;54700;51.796;10.956;2023-02-28T02:45:59;0.10;83.90
67901;DHT22;54700;51.796;10.956;2023-02-28T02:48:31;0.10;85.60
67901;DHT22;54700;51.796;10.956;2023-02-28T02:51:05;0.10;88.60
67901;DHT22;54700;51.796;10.956;2023-02-28T02:53:37;0.10;87.10
67901;DHT22;54700;51.796;10.956;2023-02-28T02:56:08;0.10;88.20
67901;DHT22;54700;51.796;10.956;2023-02-28T02:58:37;0.00;87.80
67901;DHT22;54700;51.796;10.956;2023-02-28T03:01:08;0.10;88.40
67901;DHT22;54700;51.796;10.956;2023-02-28T03:03:41;0.10;89.60
67901;DHT22;54700;51.796;10.956;2023-02-28T03:06:10;0.10;87.70
67901;DHT22;54700;51.796;10.956;2023-02-28T03:08:37;0.10;84.30
67901;DHT22;54700;51.796;10.956;2023-02-28T03:11:06;0.10;82.40
67901;DHT22;54700;51.796;10.956;2023-02-28T03:13:50;0.10;83.60
67901;DHT22;54700;51.796;10.956;2023-02-28T03:16:32;0.10;85.50
67901;DHT22;54700;51.796;10.956;2023-02-28T03:19:06;0.10;84.70
67901;DHT22;54700;51.796;10.956;2023-02-28T03:21:56;0.10;83.80
67901;DHT22;54700;51.796;10.956;2023-02-28T03:24:32;0.10;81.90
67901;DHT22;54700;51.796;10.956;2023-02-28T03:27:06;0.10;80.90
67901;DHT22;54700;51.796;10.956;2023-02-28T03:29:37;0.20;80.20
67901;DHT22;54700;51.796;10.956;2023-02-28T03:32:11;0.20;80.70
67901;DHT22;54700;51.796;10.956;2023-02-28T03:34:48;0.20;80.10
67901;DHT22;54700;51.796;10.956;2023-02-28T03:37:23;0.20;81.10
67901;DHT22;54700;51.796;10.956;2023-02-28T03:39:56;0.20;80.90
67901;DHT22;54700;51.796;10.956;2023-02-28T03:42:28;0.20;80.60
67901;DHT22;54700;51.796;10.956;2023-02-28T03:44:58;0.20;81.80
67901;DHT22;54700;51.796;10.956;2023-02-28T03:47:29;0.20;81.80
67901;DHT22;54700;51.796;10.956;2023-02-28T03:49:59;0.20;80.10
67901;DHT22;54700;51.796;10.956;2023-02-28T03:52:33;0.20;79.40
67901;DHT22;54700;51.796;10.956;2023-02-28T03:55:02;0.10;79.30
67901;DHT22;54700;51.796;10.956;2023-02-28T03:57:36;0.20;79.20
67901;DHT22;54700;51.796;10.956;2023-02-28T04:00:06;0.10;78.60
67901;DHT22;54700;51.796;10.956;2023-02-28T04:02:39;0.10;79.40
67901;DHT22;54700;51.796;10.956;2023-02-28T04:05:07;0.20;80.20
67901;DHT22;54700;51.796;10.956;2023-02-28T04:07:36;0.10;80.60
67901;DHT22;54700;51.796;10.956;2023-02-28T04:10:03;0.20;80.40
67901;DHT22;54700;51.796;10.956;2023-02-28T04:12:31;0.20;80.80
67901;DHT22;54700;51.796;10.956;2023-02-28T04:14:57;0.20;80.80
67901;DHT22;54700;51.796;10.956;2023-02-28T04:17:24;0.20;80.40
67901;DHT22;54700;51.796;10.956;2023-02-28T04:19:51;0.20;81.00
67901;DHT22;54700;51.796;10.956;2023-02-28T04:22:19;0.20;81.60
67901;DHT22;54700;51.796;10.956;2023-02-28T04:24:47;0.20;81.00
67901;DHT22;54700;51.796;10.956;2023-02-28T04:27:16;0.20;80.50
67901;DHT22;54700;51.796;10.956;2023-02-28T04:29:43;0.10;80.10
67901;DHT22;54700;51.796;10.956;2023-02-28T04:32:10;0.10;79.40
67901;DHT22;54700;51.796;10.956;2023-02-28T04:34:37;0.10;80.70
67901;DHT22;54700;51.796;10.956;2023-02-28T04:37:07;0.10;79.80
67901;DHT22;54700;51.796;10.956;2023-02-28T04:39:37;0.10;79.60
67901;DHT22;54700;51.796;10.956;2023-02-28T04:42:06;0.10;79.20
67901;DHT22;54700;51.796;10.956;2023-02-28T04:44:33;0.10;81.60
67901;DHT22;54700;51.796;10.956;2023-02-28T04:47:00;0.10;79.80
67901;DHT22;54700;51.796;10.956;2023-02-28T04:49:26;0.00;79.90
67901;DHT22;54700;51.796;10.956;2023-02-28T04:51:53;0.00;81.40
67901;DHT22;54700;51.796;10.956;2023-02-28T04:54:21;0.00;81.10
67901;DHT22;54700;51.796;10.956;2023-02-28T04:56:47;-0.10;81.70
67901;DHT22;54700;51.796;10.956;2023-02-28T04:59:16;-0.10;82.20
67901;DHT22;54700;51.796;10.956;2023-02-28T05:01:45;-0.10;83.50
67901;DHT22;54700;51.796;10.956;2023-02-28T05:04:13;-0.20;83.70
67901;DHT22;54700;51.796;10.956;2023-02-28T05:06:40;-0.20;83.40
67901;DHT22;54700;51.796;10.956;2023-02-28T05:09:07;-0.20;85.30
67901;DHT22;54700;51.796;10.956;2023-02-28T05:11:41;-0.30;85.00
67901;DHT22;54700;51.796;10.956;2023-02-28T05:14:14;-0.30;87.90
67901;DHT22;54700;51.796;10.956;2023-02-28T05:16:42;-0.30;89.10
67901;DHT22;54700;51.796;10.956;2023-02-28T05:19:11;-0.30;89.90
67901;DHT22;54700;51.796;10.956;2023-02-28T05:21:38;-0.40;89.80
67901;DHT22;54700;51.796;10.956;2023-02-28T05:24:18;-0.40;89.30
67901;DHT22;54700;51.796;10.956;2023-02-28T05:26:48;-0.40;90.70
67901;DHT22;54700;51.796;10.956;2023-02-28T05:29:17;-0.40;90.10
67901;DHT22;54700;51.796;10.956;2023-02-28T05:31:45;-0.50;90.30
67901;DHT22;54700;51.796;10.956;2023-02-28T05:34:12;-0.50;90.70
67901;DHT22;54700;51.796;10.956;2023-02-28T05:36:40;-0.50;90.70
67901;DHT22;54700;51.796;10.956;2023-02-28T05:39:07;-0.50;90.80
67901;DHT22;54700;51.796;10.956;2023-02-28T05:41:40;-0.50;90.80
67901;DHT22;54700;51.796;10.956;2023-02-28T05:44:08;-0.50;91.10
67901;DHT22;54700;51.796;10.956;2023-02-28T05:46:35;-0.60;91.70
67901;DHT22;54700;51.796;10.956;2023-02-28T05:49:04;-0.50;92.00
67901;DHT22;54700;51.796;10.956;2023-02-28T05:51:35;-0.50;91.80
67901;DHT22;54700;51.796;10.956;2023-02-28T05:54:05;-0.50;92.20
67901;DHT22;54700;51.796;10.956;2023-02-28T05:56:36;-0.50;92.60
67901;DHT22;54700;51.796;10.956;2023-02-28T05:59:12;-0.50;92.40
67901;DHT22;54700;51.796;10.956;2023-02-28T06:01:43;-0.50;92.10
67901;DHT22;54700;51.796;10.956;2023-02-28T06:04:16;-0.50;92.20
67901;DHT22;54700;51.796;10.956;2023-02-28T06:06:44;-0.50;92.40
67901;DHT22;54700;51.796;10.956;2023-02-28T06:09:11;-0.60;92.20
67901;DHT22;54700;51.796;10.956;2023-02-28T06:11:41;-0.50;92.50
67901;DHT22;54700;51.796;10.956;2023-02-28T06:14:11;-0.60;92.60
67901;DHT22;54700;51.796;10.956;2023-02-28T06:16:41;-0.60;92.30
67901;DHT22;54700;51.796;10.956;2023-02-28T06:19:09;-0.50;92.80
67901;DHT22;54700;51.796;10.956;2023-02-28T06:21:40;-0.50;92.90
67901;DHT22;54700;51.796;10.956;2023-02-28T06:24:07;-0.50;93.10
67901;DHT22;54700;51.796;10.956;2023-02-28T06:26:34;-0.50;92.70
67901;DHT22;54700;51.796;10.956;2023-02-28T06:29:01;-0.50;92.20
67901;DHT22;54700;51.796;10.956;2023-02-28T06:31:33;-0.50;93.20
67901;DHT22;54700;51.796;10.956;2023-02-28T06:34:03;-0.50;93.50
67901;DHT22;54700;51.796;10.956;2023-02-28T06:36:30;-0.50;93.80
67901;DHT22;54700;51.796;10.956;2023-02-28T06:39:05;-0.50;93.40
67901;DHT22;54700;51.796;10.956;2023-02-28T06:41:35;-0.40;93.30
67901;DHT22;54700;51.796;10.956;2023-02-28T06:44:05;-0.40;93.00
67901;DHT22;54700;51.796;10.956;2023-02-28T06:46:38;-0.40;93.40
67901;DHT22;54700;51.796;10.956;2023-02-28T06:49:06;-0.30;93.10
67901;DHT22;54700;51.796;10.956;2023-02-28T06:51:37;-0.30;92.20
67901;DHT22;54700;51.796;10.956;2023-02-28T06:54:19;-0.30;91.90
67901;DHT22;54700;51.796;10.956;2023-02-28T06:57:01;-0.30;92.20
67901;DHT22;54700;51.796;10.956;2023-02-28T06:59:30;-0.40;92.40
67901;DHT22;54700;51.796;10.956;2023-02-28T07:02:03;-0.40;92.80
67901;DHT22;54700;51.796;10.956;2023-02-28T07:04:48;-0.40;92.90
67901;DHT22;54700;51.796;10.956;2023-02-28T07:07:21;-0.40;93.20
67901;DHT22;54700;51.796;10.956;2023-02-28T07:12:57;-0.40;93.10
67901;DHT22;54700;51.796;10.956;2023-02-28T07:15:43;-0.40;93.00
67901;DHT22;54700;51.796;10.956;2023-02-28T07:18:13;-0.40;93.50
67901;DHT22;54700;51.796;10.956;2023-02-28T07:20:47;-0.40;94.00
67901;DHT22;54700;51.796;10.956;2023-02-28T07:23:16;-0.50;93.40
67901;DHT22;54700;51.796;10.956;2023-02-28T07:26:03;-0.40;93.20
67901;DHT22;54700;51.796;10.956;2023-02-28T07:28:30;-0.40;93.50
67901;DHT22;54700;51.796;10.956;2023-02-28T07:31:02;-0.30;93.00
67901;DHT22;54700;51.796;10.956;2023-02-28T07:33:30;-0.30;92.50
67901;DHT22;54700;51.796;10.956;2023-02-28T07:36:03;-0.20;91.70
67901;DHT22;54700;51.796;10.956;2023-02-28T07:38:34;-0.20;91.30
67901;DHT22;54700;51.796;10.956;2023-02-28T07:41:06;-0.20;90.80
67901;DHT22;54700;51.796;10.956;2023-02-28T07:46:20;-0.20;91.30
67901;DHT22;54700;51.796;10.956;2023-02-28T07:48:48;-0.10;91.10
67901;DHT22;54700;51.796;10.956;2023-02-28T07:51:15;-0.10;90.90
67901;DHT22;54700;51.796;10.956;2023-02-28T07:53:45;-0.10;90.60
67901;DHT22;54700;51.796;10.956;2023-02-28T07:56:14;-0.10;90.70
67901;DHT22;54700;51.796;10.956;2023-02-28T07:58:41;0.00;90.60
67901;DHT22;54700;51.796;10.956;2023-02-28T08:01:14;0.00;90.70
67901;DHT22;54700;51.796;10.956;2023-02-28T08:03:45;0.10;90.50
67901;DHT22;54700;51.796;10.956;2023-02-28T08:06:22;0.20;90.30
67901;DHT22;54700;51.796;10.956;2023-02-28T08:08:52;0.30;90.20
67901;DHT22;54700;51.796;10.956;2023-02-28T08:11:28;0.30;88.40
67901;DHT22;54700;51.796;10.956;2023-02-28T08:13:55;0.40;89.40
67901;DHT22;54700;51.796;10.956;2023-02-28T08:16:26;0.40;88.60
67901;DHT22;54700;51.796;10.956;2023-02-28T08:18:59;0.40;87.60
67901;DHT22;54700;51.796;10.956;2023-02-28T08:21:31;0.50;87.50
67901;DHT22;54700;51.796;10.956;2023-02-28T08:24:01;0.50;85.70
67901;DHT22;54700;51.796;10.956;2023-02-28T08:26:31;0.50;84.80
67901;DHT22;54700;51.796;10.956;2023-02-28T08:29:07;0.50;85.60
67901;DHT22;54700;51.796;10.956;2023-02-28T08:31:37;0.60;85.60
67901;DHT22;54700;51.796;10.956;2023-02-28T08:34:07;0.60;84.30
67901;DHT22;54700;51.796;10.956;2023-02-28T08:36:45;0.60;83.50
67901;DHT22;54700;51.796;10.956;2023-02-28T08:39:22;0.60;84.10
67901;DHT22;54700;51.796;10.956;2023-02-28T08:41:56;0.70;83.70
67901;DHT22;54700;51.796;10.956;2023-02-28T08:48:03;0.70;82.10
67901;DHT22;54700;51.796;10.956;2023-02-28T08:54:07;0.90;83.80
67901;DHT22;54700;51.796;10.956;2023-02-28T09:06:30;1.10;77.10
67901;DHT22;54700;51.796;10.956;2023-02-28T09:09:19;1.10;75.60
67901;DHT22;54700;51.796;10.956;2023-02-28T09:11:54;1.20;73.70
67901;DHT22;54700;51.796;10.956;2023-02-28T09:14:24;1.20;74.20
67901;DHT22;54700;51.796;10.956;2023-02-28T09:16:51;1.20;75.50
67901;DHT22;54700;51.796;10.956;2023-02-28T09:19:21;1.20;74.70
67901;DHT22;54700;51.796;10.956;2023-02-28T09:21:48;1.20;72.80
67901;DHT22;54700;51.796;10.956;2023-02-28T09:24:15;1.30;73.50
67901;DHT22;54700;51.796;10.956;2023-02-28T09:26:48;1.30;72.40
67901;DHT22;54700;51.796;10.956;2023-02-28T09:29:18;1.30;74.10
67901;DHT22;54700;51.796;10.956;2023-02-28T09:31:48;1.40;73.90
67901;DHT22;54700;51.796;10.956;2023-02-28T09:34:16;1.50;69.90
67901;DHT22;54700;51.796;10.956;2023-02-28T09:36:44;1.50;70.60
67901;DHT22;54700;51.796;10.956;2023-02-28T09:39:15;1.60;72.60
67901;DHT22;54700;51.796;10.956;2023-02-28T09:41:43;1.60;68.70
67901;DHT22;54700;51.796;10.956;2023-02-28T09:44:17;1.60;67.90
67901;DHT22;54700;51.796;10.956;2023-02-28T09:46:48;1.70;67.60
67901;DHT22;54700;51.796;10.956;2023-02-28T09:49:22;1.80;67.70
67901;DHT22;54700;51.796;10.956;2023-02-28T09:51:55;1.80;64.90
67901;DHT22;54700;51.796;10.956;2023-02-28T09:54:27;1.80;60.30
67901;DHT22;54700;51.796;10.956;2023-02-28T09:56:59;1.90;60.70
67901;DHT22;54700;51.796;10.956;2023-02-28T09:59:41;1.80;59.70
67901;DHT22;54700;51.796;10.956;2023-02-28T10:02:19;1.90;61.10
67901;DHT22;54700;51.796;10.956;2023-02-28T10:04:59;1.90;60.30
67901;DHT22;54700;51.796;10.956;2023-02-28T10:07:36;2.00;59.70
67901;DHT22;54700;51.796;10.956;2023-02-28T10:10:17;2.00;59.90
67901;DHT22;54700;51.796;10.956;2023-02-28T10:12:48;2.00;60.40
67901;DHT22;54700;51.796;10.956;2023-02-28T10:15:19;2.00;59.10
67901;DHT22;54700;51.796;10.956;2023-02-28T10:17:54;2.10;59.70
67901;DHT22;54700;51.796;10.956;2023-02-28T10:20:26;2.10;59.70
67901;DHT22;54700;51.796;10.956;2023-02-28T10:23:03;2.20;58.90
67901;DHT22;54700;51.796;10.956;2023-02-28T10:25:43;2.20;60.00
67901;DHT22;54700;51.796;10.956;2023-02-28T10:28:17;2.30;60.00
67901;DHT22;54700;51.796;10.956;2023-02-28T10:30:47;2.30;59.00
67901;DHT22;54700;51.796;10.956;2023-02-28T10:33:29;2.40;58.70
67901;DHT22;54700;51.796;10.956;2023-02-28T10:36:18;2.50;58.30
67901;DHT22;54700;51.796;10.956;2023-02-28T10:42:18;2.80;57.10
67901;DHT22;54700;51.796;10.956;2023-02-28T10:47:48;3.20;55.50
67901;DHT22;54700;51.796;10.956;2023-02-28T10:50:45;3.40;55.40
67901;DHT22;54700;51.796;10.956;2023-02-28T10:53:27;3.50;55.30
67901;DHT22;54700;51.796;10.956;2023-02-28T10:59:35;3.50;52.80
67901;DHT22;54700;51.796;10.956;2023-02-28T11:07:54;3.60;53.40
67901;DHT22;54700;51.796;10.956;2023-02-28T11:10:30;3.60;52.90
67901;DHT22;54700;51.796;10.956;2023-02-28T11:13:02;3.60;54.50
67901;DHT22;54700;51.796;10.956;2023-02-28T11:15:32;3.60;53.70
67901;DHT22;54700;51.796;10.956;2023-02-28T11:18:02;3.40;52.60
67901;DHT22;54700;51.796;10.956;2023-02-28T11:20:43;3.30;53.70
67901;DHT22;54700;51.796;10.956;2023-02-28T11:23:15;3.20;55.00
67901;DHT22;54700;51.796;10.956;2023-02-28T11:25:49;3.20;54.30
67901;DHT22;54700;51.796;10.956;2023-02-28T11:28:23;3.10;55.00
67901;DHT22;54700;51.796;10.956;2023-02-28T11:31:02;3.10;54.50
67901;DHT22;54700;51.796;10.956;2023-02-28T11:33:40;3.00;55.60
67901;DHT22;54700;51.796;10.956;2023-02-28T11:36:17;3.00;54.50
67901;DHT22;54700;51.796;10.956;2023-02-28T11:38:50;2.90;54.20
67901;DHT22;54700;51.796;10.956;2023-02-28T11:41:26;2.90;54.10
67901;DHT22;54700;51.796;10.956;2023-02-28T11:44:21;2.90;53.40
67901;DHT22;54700;51.796;10.956;2023-02-28T11:47:02;2.80;53.00
67901;DHT22;54700;51.796;10.956;2023-02-28T11:49:41;2.70;54.20
67901;DHT22;54700;51.796;10.956;2023-02-28T11:52:20;2.70;55.10
67901;DHT22;54700;51.796;10.956;2023-02-28T11:55:02;2.60;55.20
67901;DHT22;54700;51.796;10.956;2023-02-28T11:57:47;2.50;55.50
67901;DHT22;54700;51.796;10.956;2023-02-28T12:00:37;2.40;55.60
67901;DHT22;54700;51.796;10.956;2023-02-28T12:06:15;2.30;56.40
67901;DHT22;54700;51.796;10.956;2023-02-28T12:08:52;2.30;56.40
67901;DHT22;54700;51.796;10.956;2023-02-28T12:11:31;2.30;55.00
67901;DHT22;54700;51.796;10.956;2023-02-28T12:14:26;2.30;54.80
67901;DHT22;54700;51.796;10.956;2023-02-28T12:17:19;2.30;55.70
67901;DHT22;54700;51.796;10.956;2023-02-28T12:19:57;2.20;55.10
67901;DHT22;54700;51.796;10.956;2023-02-28T12:22:30;2.30;55.70
67901;DHT22;54700;51.796;10.956;2023-02-28T12:25:17;2.40;55.80
67901;DHT22;54700;51.796;10.956;2023-02-28T12:27:57;2.40;55.10
67901;DHT22;54700;51.796;10.956;2023-02-28T12:30:28;2.40;55.80
67901;DHT22;54700;51.796;10.956;2023-02-28T12:33:01;2.50;54.70
67901;DHT22;54700;51.796;10.956;2023-02-28T12:35:36;2.50;55.20
67901;DHT22;54700;51.796;10.956;2023-02-28T12:38:12;2.50;55.40
67901;DHT22;54700;51.796;10.956;2023-02-28T12:40:45;2.60;55.10
67901;DHT22;54700;51.796;10.956;2023-02-28T12:43:21;2.70;54.30
67901;DHT22;54700;51.796;10.956;2023-02-28T12:45:56;2.80;54.40
67901;DHT22;54700;51.796;10.956;2023-02-28T12:48:27;2.80;55.20
67901;DHT22;54700;51.796;10.956;2023-02-28T12:51:06;2.90;55.30
67901;DHT22;54700;51.796;10.956;2023-02-28T12:53:37;2.90;55.00
67901;DHT22;54700;51.796;10.956;2023-02-28T12:56:21;3.00;55.60
67901;DHT22;54700;51.796;10.956;2023-02-28T12:58:56;3.00;56.40
67901;DHT22;54700;51.796;10.956;2023-02-28T13:01:36;3.10;56.10
67901;DHT22;54700;51.796;10.956;2023-02-28T13:07:29;3.00;55.10
67901;DHT22;54700;51.796;10.956;2023-02-28T13:10:08;3.00;54.50
67901;DHT22;54700;51.796;10.956;2023-02-28T13:12:42;3.00;54.90
67901;DHT22;54700;51.796;10.956;2023-02-28T13:15:17;3.00;55.60
67901;DHT22;54700;51.796;10.956;2023-02-28T13:17:50;2.80;54.70
67901;DHT22;54700;51.796;10.956;2023-02-28T13:20:22;2.70;54.70
67901;DHT22;54700;51.796;10.956;2023-02-28T13:22:54;2.70;55.90
67901;DHT22;54700;51.796;10.956;2023-02-28T13:31:33;2.90;55.20
67901;DHT22;54700;51.796;10.956;2023-02-28T13:34:39;2.90;55.00
67901;DHT22;54700;51.796;10.956;2023-02-28T13:40:29;3.00;54.00
67901;DHT22;54700;51.796;10.956;2023-02-28T13:43:02;3.00;53.40
67901;DHT22;54700;51.796;10.956;2023-02-28T13:45:33;3.00;54.20
67901;DHT22;54700;51.796;10.956;2023-02-28T13:48:04;3.00;53.70
67901;DHT22;54700;51.796;10.956;2023-02-28T13:50:41;3.00;53.40
67901;DHT22;54700;51.796;10.956;2023-02-28T13:53:30;3.00;54.20
67901;DHT22;54700;51.796;10.956;2023-02-28T13:56:25;3.00;54.10
67901;DHT22;54700;51.796;10.956;2023-02-28T13:59:03;3.10;54.50
67901;DHT22;54700;51.796;10.956;2023-02-28T14:01:43;3.10;54.50
67901;DHT22;54700;51.796;10.956;2023-02-28T14:04:34;3.10;54.80
67901;DHT22;54700;51.796;10.956;2023-02-28T14:07:22;3.10;54.90
67901;DHT22;54700;51.796;10.956;2023-02-28T14:09:56;3.10;54.80
67901;DHT22;54700;51.796;10.956;2023-02-28T14:15:34;3.10;55.10
67901;DHT22;54700;51.796;10.956;2023-02-28T14:18:11;3.20;55.00
67901;DHT22;54700;51.796;10.956;2023-02-28T14:20:44;3.20;54.40
67901;DHT22;54700;51.796;10.956;2023-02-28T14:23:19;3.20;55.10
67901;DHT22;54700;51.796;10.956;2023-02-28T14:26:00;3.20;54.60
67901;DHT22;54700;51.796;10.956;2023-02-28T14:28:45;3.20;54.40
67901;DHT22;54700;51.796;10.956;2023-02-28T14:31:23;3.20;54.80
67901;DHT22;54700;51.796;10.956;2023-02-28T14:34:03;3.20;53.80
67901;DHT22;54700;51.796;10.956;2023-02-28T14:36:43;3.20;53.70
67901;DHT22;54700;51.796;10.956;2023-02-28T14:39:12;3.20;54.20
67901;DHT22;54700;51.796;10.956;2023-02-28T14:41:41;3.20;54.00
67901;DHT22;54700;51.796;10.956;2023-02-28T14:44:15;3.20;54.00
67901;DHT22;54700;51.796;10.956;2023-02-28T14:46:45;3.20;54.50
67901;DHT22;54700;51.796;10.956;2023-02-28T14:49:18;3.20;54.40
67901;DHT22;54700;51.796;10.956;2023-02-28T14:51:47;3.10;54.60
67901;DHT22;54700;51.796;10.956;2023-02-28T14:54:27;3.10;54.40
67901;DHT22;54700;51.796;10.956;2023-02-28T14:56:55;3.10;53.90
67901;DHT22;54700;51.796;10.956;2023-02-28T14:59:32;3.10;54.40
67901;DHT22;54700;51.796;10.956;2023-02-28T15:02:19;3.10;54.30
67901;DHT22;54700;51.796;10.956;2023-02-28T15:04:54;3.10;55.00
67901;DHT22;54700;51.796;10.956;2023-02-28T15:07:22;3.10;55.00
67901;DHT22;54700;51.796;10.956;2023-02-28T15:10:15;3.00;54.90
67901;DHT22;54700;51.796;10.956;2023-02-28T15:12:49;3.00;54.80
67901;DHT22;54700;51.796;10.956;2023-02-28T15:15:20;3.00;55.50
67901;DHT22;54700;51.796;10.956;2023-02-28T15:17:49;3.00;55.60
67901;DHT22;54700;51.796;10.956;2023-02-28T15:20:20;3.00;56.10
67901;DHT22;54700;51.796;10.956;2023-02-28T15:23:01;3.00;56.00
67901;DHT22;54700;51.796;10.956;2023-02-28T15:25:29;3.00;55.50
67901;DHT22;54700;51.796;10.956;2023-02-28T15:27:56;3.00;55.80
67901;DHT22;54700;51.796;10.956;2023-02-28T15:30:26;3.00;55.90
67901;DHT22;54700;51.796;10.956;2023-02-28T15:33:02;2.90;56.40
67901;DHT22;54700;51.796;10.956;2023-02-28T15:35:34;2.90;56.80
67901;DHT22;54700;51.796;10.956;2023-02-28T15:38:02;3.00;56.40
67901;DHT22;54700;51.796;10.956;2023-02-28T15:40:40;2.90;55.70
67901;DHT22;54700;51.796;10.956;2023-02-28T15:43:13;2.90;56.30
67901;DHT22;54700;51.796;10.956;2023-02-28T15:45:45;2.90;56.30
67901;DHT22;54700;51.796;10.956;2023-02-28T15:48:17;2.90;55.80
67901;DHT22;54700;51.796;10.956;2023-02-28T15:50:49;2.80;56.10
67901;DHT22;54700;51.796;10.956;2023-02-28T15:53:21;2.80;56.50
67901;DHT22;54700;51.796;10.956;2023-02-28T15:58:44;2.80;56.80
67901;DHT22;54700;51.796;10.956;2023-02-28T16:01:21;2.70;56.80
67901;DHT22;54700;51.796;10.956;2023-02-28T16:03:52;2.70;57.00
67901;DHT22;54700;51.796;10.956;2023-02-28T16:06:33;2.60;57.40
67901;DHT22;54700;51.796;10.956;2023-02-28T16:09:05;2.60;57.60
67901;DHT22;54700;51.796;10.956;2023-02-28T16:11:36;2.60;57.40
67901;DHT22;54700;51.796;10.956;2023-02-28T16:14:06;2.60;58.00
67901;DHT22;54700;51.796;10.956;2023-02-28T16:16:42;2.50;58.20
67901;DHT22;54700;51.796;10.956;2023-02-28T16:19:10;2.50;59.00
67901;DHT22;54700;51.796;10.956;2023-02-28T16:21:37;2.40;59.40
67901;DHT22;54700;51.796;10.956;2023-02-28T16:24:06;2.40;60.00
67901;DHT22;54700;51.796;10.956;2023-02-28T16:26:33;2.30;60.20
67901;DHT22;54700;51.796;10.956;2023-02-28T16:29:04;2.20;60.80
67901;DHT22;54700;51.796;10.956;2023-02-28T16:31:32;2.20;61.30
67901;DHT22;54700;51.796;10.956;2023-02-28T16:34:04;2.10;61.50
67901;DHT22;54700;51.796;10.956;2023-02-28T16:36:34;2.10;61.80
67901;DHT22;54700;51.796;10.956;2023-02-28T16:39:01;2.00;62.20
67901;DHT22;54700;51.796;10.956;2023-02-28T16:41:29;2.00;62.60
67901;DHT22;54700;51.796;10.956;2023-02-28T16:43:56;1.90;62.90
67901;DHT22;54700;51.796;10.956;2023-02-28T16:46:27;1.80;63.20
67901;DHT22;54700;51.796;10.956;2023-02-28T16:49:00;1.80;63.60
67901;DHT22;54700;51.796;10.956;2023-02-28T16:51:28;1.70;64.10
67901;DHT22;54700;51.796;10.956;2023-02-28T16:53:55;1.70;64.50
67901;DHT22;54700;51.796;10.956;2023-02-28T16:56:25;1.60;65.40
67901;DHT22;54700;51.796;10.956;2023-02-28T16:58:55;1.50;66.30
67901;DHT22;54700;51.796;10.956;2023-02-28T17:01:29;1.40;66.90
67901;DHT22;54700;51.796;10.956;2023-02-28T17:03:56;1.40;68.30
67901;DHT22;54700;51.796;10.956;2023-02-28T17:06:24;1.30;69.50
67901;DHT22;54700;51.796;10.956;2023-02-28T17:08:54;1.20;70.50
67901;DHT22;54700;51.796;10.956;2023-02-28T17:11:24;1.10;71.30